sensor_id;sensor_type;location;lat;lon;timestamp;P1;durP1;ratioP1;P2;durP2;ratioP2
10353;SDS011;5223;50.924;13.338;2022-11-06T00:00:28;0.30;;;0.30;;
10353;SDS011;5223;50.924;13.338;2022-11-06T00:05:56;0.77;;;0.77;;
10353;SDS011;5223;50.924;13.338;2022-11-06T00:08:42;6.40;;;1.57;;
10353;SDS011;5223;50.924;13.338;2022-11-06T00:11:19;0.90;;;0.90;;
10353;SDS011;5223;50.924;13.338;2022-11-06T00:13:51;0.97;;;0.97;;
10353;SDS011;5223;50.924;13.338;2022-11-06T00:16:23;0.40;;;0.40;;
10353;SDS011;5223;50.924;13.338;2022-11-06T00:18:58;0.73;;;0.73;;
10353;SDS011;5223;50.924;13.338;2022-11-06T00:21:41;1.53;;;1.43;;
10353;SDS011;5223;50.924;13.338;2022-11-06T00:24:18;0.63;;;0.63;;
10353;SDS011;5223;50.924;13.338;2022-11-06T00:27:05;0.40;;;0.40;;
10353;SDS011;5223;50.924;13.338;2022-11-06T00:29:37;0.80;;;0.80;;
10353;SDS011;5223;50.924;13.338;2022-11-06T00:32:10;0.87;;;0.87;;
10353;SDS011;5223;50.924;13.338;2022-11-06T00:34:45;0.60;;;0.60;;
10353;SDS011;5223;50.924;13.338;2022-11-06T00:37:29;1.53;;;1.43;;
10353;SDS011;5223;50.924;13.338;2022-11-06T00:40:01;1.47;;;0.33;;
10353;SDS011;5223;50.924;13.338;2022-11-06T00:42:39;0.80;;;0.80;;
10353;SDS011;5223;50.924;13.338;2022-11-06T00:45:11;0.50;;;0.50;;
10353;SDS011;5223;50.924;13.338;2022-11-06T00:47:44;0.60;;;0.60;;
10353;SDS011;5223;50.924;13.338;2022-11-06T00:50:24;0.30;;;0.30;;
10353;SDS011;5223;50.924;13.338;2022-11-06T00:53:05;0.40;;;0.40;;
10353;SDS011;5223;50.924;13.338;2022-11-06T00:55:41;1.93;;;1.33;;
10353;SDS011;5223;50.924;13.338;2022-11-06T00:58:12;0.90;;;0.90;;
10353;SDS011;5223;50.924;13.338;2022-11-06T01:00:53;0.20;;;0.20;;
10353;SDS011;5223;50.924;13.338;2022-11-06T01:03:36;0.70;;;0.70;;
10353;SDS011;5223;50.924;13.338;2022-11-06T01:06:12;0.20;;;0.20;;
10353;SDS011;5223;50.924;13.338;2022-11-06T01:08:57;0.30;;;0.30;;
10353;SDS011;5223;50.924;13.338;2022-11-06T01:11:33;1.10;;;1.00;;
10353;SDS011;5223;50.924;13.338;2022-11-06T01:14:04;0.50;;;0.50;;
10353;SDS011;5223;50.924;13.338;2022-11-06T01:16:36;0.80;;;0.80;;
10353;SDS011;5223;50.924;13.338;2022-11-06T01:19:18;0.90;;;0.90;;
10353;SDS011;5223;50.924;13.338;2022-11-06T01:21:46;1.07;;;1.07;;
10353;SDS011;5223;50.924;13.338;2022-11-06T01:24:35;2.00;;;1.07;;
10353;SDS011;5223;50.924;13.338;2022-11-06T01:27:10;1.13;;;1.07;;
10353;SDS011;5223;50.924;13.338;2022-11-06T01:29:46;1.60;;;1.50;;
10353;SDS011;5223;50.924;13.338;2022-11-06T01:32:27;0.43;;;0.43;;
10353;SDS011;5223;50.924;13.338;2022-11-06T01:34:59;0.70;;;0.70;;
10353;SDS011;5223;50.924;13.338;2022-11-06T01:37:33;0.70;;;0.70;;
10353;SDS011;5223;50.924;13.338;2022-11-06T01:40:05;0.87;;;0.87;;
10353;SDS011;5223;50.924;13.338;2022-11-06T01:42:36;0.93;;;0.93;;
10353;SDS011;5223;50.924;13.338;2022-11-06T01:45:20;1.60;;;1.50;;
10353;SDS011;5223;50.924;13.338;2022-11-06T01:47:57;0.93;;;0.93;;
10353;SDS011;5223;50.924;13.338;2022-11-06T01:50:33;0.67;;;0.40;;
10353;SDS011;5223;50.924;13.338;2022-11-06T01:53:07;0.67;;;0.67;;
10353;SDS011;5223;50.924;13.338;2022-11-06T01:58:34;0.67;;;0.67;;
10353;SDS011;5223;50.924;13.338;2022-11-06T02:01:08;0.87;;;0.87;;
10353;SDS011;5223;50.924;13.338;2022-11-06T02:03:49;0.70;;;0.70;;
10353;SDS011;5223;50.924;13.338;2022-11-06T02:06:24;1.80;;;0.90;;
10353;SDS011;5223;50.924;13.338;2022-11-06T02:08:57;0.30;;;0.30;;
10353;SDS011;5223;50.924;13.338;2022-11-06T02:11:35;1.77;;;1.13;;
10353;SDS011;5223;50.924;13.338;2022-11-06T02:14:16;0.40;;;0.40;;
10353;SDS011;5223;50.924;13.338;2022-11-06T02:16:50;2.50;;;2.30;;
10353;SDS011;5223;50.924;13.338;2022-11-06T02:19:31;1.63;;;1.53;;
10353;SDS011;5223;50.924;13.338;2022-11-06T02:22:17;1.90;;;1.57;;
10353;SDS011;5223;50.924;13.338;2022-11-06T02:25:07;1.30;;;1.20;;
10353;SDS011;5223;50.924;13.338;2022-11-06T02:27:49;1.43;;;1.33;;
10353;SDS011;5223;50.924;13.338;2022-11-06T02:30:22;0.40;;;0.40;;
10353;SDS011;5223;50.924;13.338;2022-11-06T02:32:53;1.10;;;1.10;;
10353;SDS011;5223;50.924;13.338;2022-11-06T02:35:30;0.57;;;0.57;;
10353;SDS011;5223;50.924;13.338;2022-11-06T02:38:03;2.60;;;1.47;;
10353;SDS011;5223;50.924;13.338;2022-11-06T02:40:43;1.53;;;1.43;;
10353;SDS011;5223;50.924;13.338;2022-11-06T02:43:31;0.40;;;0.40;;
10353;SDS011;5223;50.924;13.338;2022-11-06T02:46:08;1.30;;;1.30;;
10353;SDS011;5223;50.924;13.338;2022-11-06T02:48:41;0.30;;;0.30;;
10353;SDS011;5223;50.924;13.338;2022-11-06T02:51:23;1.57;;;1.47;;
10353;SDS011;5223;50.924;13.338;2022-11-06T02:53:59;2.80;;;1.47;;
10353;SDS011;5223;50.924;13.338;2022-11-06T02:56:43;0.87;;;0.87;;
10353;SDS011;5223;50.924;13.338;2022-11-06T02:59:28;1.50;;;1.30;;
10353;SDS011;5223;50.924;13.338;2022-11-06T03:01:59;3.53;;;1.50;;
10353;SDS011;5223;50.924;13.338;2022-11-06T03:04:34;1.10;;;1.00;;
10353;SDS011;5223;50.924;13.338;2022-11-06T03:07:19;0.30;;;0.30;;
10353;SDS011;5223;50.924;13.338;2022-11-06T03:10:01;0.37;;;0.37;;
10353;SDS011;5223;50.924;13.338;2022-11-06T03:12:49;0.77;;;0.73;;
10353;SDS011;5223;50.924;13.338;2022-11-06T03:15:37;0.90;;;0.70;;
10353;SDS011;5223;50.924;13.338;2022-11-06T03:18:13;1.37;;;1.27;;
10353;SDS011;5223;50.924;13.338;2022-11-06T03:20:48;0.30;;;0.30;;
10353;SDS011;5223;50.924;13.338;2022-11-06T03:23:26;0.33;;;0.33;;
10353;SDS011;5223;50.924;13.338;2022-11-06T03:26:08;0.70;;;0.70;;
10353;SDS011;5223;50.924;13.338;2022-11-06T03:28:45;1.50;;;0.87;;
10353;SDS011;5223;50.924;13.338;2022-11-06T03:31:28;1.03;;;0.93;;
10353;SDS011;5223;50.924;13.338;2022-11-06T03:34:11;1.00;;;1.00;;
10353;SDS011;5223;50.924;13.338;2022-11-06T03:36:46;0.73;;;0.73;;
10353;SDS011;5223;50.924;13.338;2022-11-06T03:39:29;0.47;;;0.33;;
10353;SDS011;5223;50.924;13.338;2022-11-06T03:42:03;1.13;;;1.10;;
10353;SDS011;5223;50.924;13.338;2022-11-06T03:44:37;0.87;;;0.87;;
10353;SDS011;5223;50.924;13.338;2022-11-06T03:47:31;0.37;;;0.37;;
10353;SDS011;5223;50.924;13.338;2022-11-06T03:50:01;2.83;;;1.80;;
10353;SDS011;5223;50.924;13.338;2022-11-06T03:52:36;0.60;;;0.60;;
10353;SDS011;5223;50.924;13.338;2022-11-06T03:55:11;2.20;;;1.50;;
10353;SDS011;5223;50.924;13.338;2022-11-06T03:57:52;0.37;;;0.37;;
10353;SDS011;5223;50.924;13.338;2022-11-06T04:00:33;0.40;;;0.40;;
10353;SDS011;5223;50.924;13.338;2022-11-06T04:06:04;2.47;;;2.27;;
10353;SDS011;5223;50.924;13.338;2022-11-06T04:08:48;0.50;;;0.50;;
10353;SDS011;5223;50.924;13.338;2022-11-06T04:11:35;2.80;;;2.43;;
10353;SDS011;5223;50.924;13.338;2022-11-06T04:14:22;1.50;;;0.70;;
10353;SDS011;5223;50.924;13.338;2022-11-06T04:16:56;0.40;;;0.40;;
10353;SDS011;5223;50.924;13.338;2022-11-06T04:19:26;0.33;;;0.33;;
10353;SDS011;5223;50.924;13.338;2022-11-06T04:22:26;0.30;;;0.30;;
10353;SDS011;5223;50.924;13.338;2022-11-06T04:25:05;0.20;;;0.20;;
10353;SDS011;5223;50.924;13.338;2022-11-06T04:27:58;1.20;;;1.20;;
10353;SDS011;5223;50.924;13.338;2022-11-06T04:30:36;0.20;;;0.20;;
10353;SDS011;5223;50.924;13.338;2022-11-06T04:33:13;1.70;;;1.03;;
10353;SDS011;5223;50.924;13.338;2022-11-06T04:35:52;0.40;;;0.40;;
10353;SDS011;5223;50.924;13.338;2022-11-06T04:38:31;0.60;;;0.60;;
10353;SDS011;5223;50.924;13.338;2022-11-06T04:41:05;1.63;;;1.53;;
10353;SDS011;5223;50.924;13.338;2022-11-06T04:43:50;1.63;;;0.80;;
10353;SDS011;5223;50.924;13.338;2022-11-06T04:46:27;4.07;;;3.23;;
10353;SDS011;5223;50.924;13.338;2022-11-06T04:49:07;0.50;;;0.50;;
10353;SDS011;5223;50.924;13.338;2022-11-06T04:51:44;0.60;;;0.60;;
10353;SDS011;5223;50.924;13.338;2022-11-06T04:54:22;0.30;;;0.30;;
10353;SDS011;5223;50.924;13.338;2022-11-06T04:57:02;2.07;;;1.37;;
10353;SDS011;5223;50.924;13.338;2022-11-06T04:59:35;0.40;;;0.40;;
10353;SDS011;5223;50.924;13.338;2022-11-06T05:02:08;1.10;;;0.87;;
10353;SDS011;5223;50.924;13.338;2022-11-06T05:04:41;0.50;;;0.50;;
10353;SDS011;5223;50.924;13.338;2022-11-06T05:07:15;0.97;;;0.97;;
10353;SDS011;5223;50.924;13.338;2022-11-06T05:09:56;0.57;;;0.57;;
10353;SDS011;5223;50.924;13.338;2022-11-06T05:12:28;0.60;;;0.60;;
10353;SDS011;5223;50.924;13.338;2022-11-06T05:14:56;0.87;;;0.87;;
10353;SDS011;5223;50.924;13.338;2022-11-06T05:17:30;0.30;;;0.30;;
10353;SDS011;5223;50.924;13.338;2022-11-06T05:20:04;0.73;;;0.73;;
10353;SDS011;5223;50.924;13.338;2022-11-06T05:22:39;0.83;;;0.83;;
10353;SDS011;5223;50.924;13.338;2022-11-06T05:25:32;4.50;;;1.67;;
10353;SDS011;5223;50.924;13.338;2022-11-06T05:28:06;0.20;;;0.20;;
10353;SDS011;5223;50.924;13.338;2022-11-06T05:30:37;1.03;;;1.00;;
10353;SDS011;5223;50.924;13.338;2022-11-06T05:33:18;1.30;;;0.93;;
10353;SDS011;5223;50.924;13.338;2022-11-06T05:35:52;0.80;;;0.80;;
10353;SDS011;5223;50.924;13.338;2022-11-06T05:38:27;0.77;;;0.77;;
10353;SDS011;5223;50.924;13.338;2022-11-06T05:41:06;3.70;;;2.10;;
10353;SDS011;5223;50.924;13.338;2022-11-06T05:43:48;0.50;;;0.50;;
10353;SDS011;5223;50.924;13.338;2022-11-06T05:46:29;2.67;;;1.73;;
10353;SDS011;5223;50.924;13.338;2022-11-06T05:49:02;1.50;;;1.40;;
10353;SDS011;5223;50.924;13.338;2022-11-06T05:51:42;1.07;;;1.07;;
10353;SDS011;5223;50.924;13.338;2022-11-06T05:54:13;0.20;;;0.20;;
10353;SDS011;5223;50.924;13.338;2022-11-06T05:56:54;0.30;;;0.30;;
10353;SDS011;5223;50.924;13.338;2022-11-06T05:59:25;1.20;;;1.00;;
10353;SDS011;5223;50.924;13.338;2022-11-06T06:01:59;0.30;;;0.30;;
10353;SDS011;5223;50.924;13.338;2022-11-06T06:04:34;1.03;;;0.80;;
10353;SDS011;5223;50.924;13.338;2022-11-06T06:07:07;0.80;;;0.80;;
10353;SDS011;5223;50.924;13.338;2022-11-06T06:09:41;0.20;;;0.20;;
10353;SDS011;5223;50.924;13.338;2022-11-06T06:12:23;0.40;;;0.40;;
10353;SDS011;5223;50.924;13.338;2022-11-06T06:15:01;0.50;;;0.50;;
10353;SDS011;5223;50.924;13.338;2022-11-06T06:17:34;1.03;;;0.93;;
10353;SDS011;5223;50.924;13.338;2022-11-06T06:20:13;0.13;;;0.13;;
10353;SDS011;5223;50.924;13.338;2022-11-06T06:22:51;1.03;;;1.03;;
10353;SDS011;5223;50.924;13.338;2022-11-06T06:25:25;0.30;;;0.30;;
10353;SDS011;5223;50.924;13.338;2022-11-06T06:28:04;0.10;;;0.10;;
10353;SDS011;5223;50.924;13.338;2022-11-06T06:30:41;0.10;;;0.10;;
10353;SDS011;5223;50.924;13.338;2022-11-06T06:33:22;0.30;;;0.30;;
10353;SDS011;5223;50.924;13.338;2022-11-06T06:35:55;0.20;;;0.20;;
10353;SDS011;5223;50.924;13.338;2022-11-06T06:38:27;0.23;;;0.23;;
10353;SDS011;5223;50.924;13.338;2022-11-06T06:41:04;0.53;;;0.40;;
10353;SDS011;5223;50.924;13.338;2022-11-06T06:43:47;0.20;;;0.20;;
10353;SDS011;5223;50.924;13.338;2022-11-06T06:46:20;0.47;;;0.47;;
10353;SDS011;5223;50.924;13.338;2022-11-06T06:48:59;2.10;;;2.00;;
10353;SDS011;5223;50.924;13.338;2022-11-06T06:51:33;1.67;;;1.57;;
10353;SDS011;5223;50.924;13.338;2022-11-06T06:54:17;0.30;;;0.30;;
10353;SDS011;5223;50.924;13.338;2022-11-06T06:56:58;0.53;;;0.53;;
10353;SDS011;5223;50.924;13.338;2022-11-06T06:59:41;1.17;;;1.17;;
10353;SDS011;5223;50.924;13.338;2022-11-06T07:02:18;0.30;;;0.30;;
10353;SDS011;5223;50.924;13.338;2022-11-06T07:04:47;0.20;;;0.20;;
10353;SDS011;5223;50.924;13.338;2022-11-06T07:07:21;0.33;;;0.33;;
10353;SDS011;5223;50.924;13.338;2022-11-06T07:10:03;0.40;;;0.40;;
10353;SDS011;5223;50.924;13.338;2022-11-06T07:12:37;0.50;;;0.50;;
10353;SDS011;5223;50.924;13.338;2022-11-06T07:18:11;1.00;;;1.00;;
10353;SDS011;5223;50.924;13.338;2022-11-06T07:20:50;1.87;;;1.77;;
10353;SDS011;5223;50.924;13.338;2022-11-06T07:23:35;0.77;;;0.77;;
10353;SDS011;5223;50.924;13.338;2022-11-06T07:26:17;1.88;;;1.77;;
10353;SDS011;5223;50.924;13.338;2022-11-06T07:29:05;0.80;;;0.80;;
10353;SDS011;5223;50.924;13.338;2022-11-06T07:31:40;0.85;;;0.85;;
10353;SDS011;5223;50.924;13.338;2022-11-06T07:34:21;1.17;;;1.08;;
10353;SDS011;5223;50.924;13.338;2022-11-06T07:36:56;0.80;;;0.80;;
10353;SDS011;5223;50.924;13.338;2022-11-06T07:39:39;1.70;;;1.10;;
10353;SDS011;5223;50.924;13.338;2022-11-06T07:42:58;1.52;;;1.48;;
10353;SDS011;5223;50.924;13.338;2022-11-06T07:45:35;0.80;;;0.80;;
10353;SDS011;5223;50.924;13.338;2022-11-06T07:48:16;0.82;;;0.82;;
10353;SDS011;5223;50.924;13.338;2022-11-06T07:50:50;1.98;;;1.33;;
10353;SDS011;5223;50.924;13.338;2022-11-06T07:53:22;1.20;;;1.20;;
10353;SDS011;5223;50.924;13.338;2022-11-06T07:55:58;0.90;;;0.90;;
10353;SDS011;5223;50.924;13.338;2022-11-06T07:58:42;0.85;;;0.85;;
10353;SDS011;5223;50.924;13.338;2022-11-06T08:01:22;1.85;;;1.75;;
10353;SDS011;5223;50.924;13.338;2022-11-06T08:04:03;3.20;;;2.63;;
10353;SDS011;5223;50.924;13.338;2022-11-06T08:06:39;2.75;;;1.75;;
10353;SDS011;5223;50.924;13.338;2022-11-06T08:09:27;1.00;;;1.00;;
10353;SDS011;5223;50.924;13.338;2022-11-06T08:12:06;2.72;;;2.40;;
10353;SDS011;5223;50.924;13.338;2022-11-06T08:14:50;0.70;;;0.70;;
10353;SDS011;5223;50.924;13.338;2022-11-06T08:17:25;1.63;;;1.52;;
10353;SDS011;5223;50.924;13.338;2022-11-06T08:20:15;0.88;;;0.88;;
10353;SDS011;5223;50.924;13.338;2022-11-06T08:22:54;2.25;;;2.05;;
10353;SDS011;5223;50.924;13.338;2022-11-06T08:25:42;1.98;;;1.88;;
10353;SDS011;5223;50.924;13.338;2022-11-06T08:28:17;2.83;;;2.60;;
10353;SDS011;5223;50.924;13.338;2022-11-06T08:31:03;0.73;;;0.73;;
10353;SDS011;5223;50.924;13.338;2022-11-06T08:33:43;1.65;;;1.55;;
10353;SDS011;5223;50.924;13.338;2022-11-06T08:36:34;2.20;;;2.00;;
10353;SDS011;5223;50.924;13.338;2022-11-06T08:39:06;2.60;;;1.58;;
10353;SDS011;5223;50.924;13.338;2022-11-06T08:41:39;2.85;;;2.47;;
10353;SDS011;5223;50.924;13.338;2022-11-06T08:44:26;2.53;;;2.33;;
10353;SDS011;5223;50.924;13.338;2022-11-06T08:50:06;0.93;;;0.93;;
10353;SDS011;5223;50.924;13.338;2022-11-06T08:52:49;0.90;;;0.90;;
10353;SDS011;5223;50.924;13.338;2022-11-06T08:55:31;0.90;;;0.90;;
10353;SDS011;5223;50.924;13.338;2022-11-06T08:58:14;1.17;;;1.17;;
10353;SDS011;5223;50.924;13.338;2022-11-06T09:00:56;2.42;;;2.22;;
10353;SDS011;5223;50.924;13.338;2022-11-06T09:03:36;1.05;;;1.05;;
10353;SDS011;5223;50.924;13.338;2022-11-06T09:09:20;2.00;;;1.90;;
10353;SDS011;5223;50.924;13.338;2022-11-06T09:12:01;1.55;;;1.42;;
10353;SDS011;5223;50.924;13.338;2022-11-06T09:14:40;3.83;;;1.90;;
10353;SDS011;5223;50.924;13.338;2022-11-06T09:23:46;2.22;;;2.03;;
10353;SDS011;5223;50.924;13.338;2022-11-06T10:02:34;1.75;;;1.65;;
10353;SDS011;5223;50.924;13.338;2022-11-06T10:05:26;1.85;;;1.75;;
10353;SDS011;5223;50.924;13.338;2022-11-06T10:08:18;1.55;;;1.45;;
10353;SDS011;5223;50.924;13.338;2022-11-06T10:10:55;2.30;;;2.10;;
10353;SDS011;5223;50.924;13.338;2022-11-06T10:13:41;1.38;;;1.27;;
10353;SDS011;5223;50.924;13.338;2022-11-06T10:16:29;1.08;;;1.08;;
10353;SDS011;5223;50.924;13.338;2022-11-06T10:30:31;1.25;;;1.25;;
10353;SDS011;5223;50.924;13.338;2022-11-06T10:33:22;0.90;;;0.90;;
10353;SDS011;5223;50.924;13.338;2022-11-06T10:36:04;2.33;;;2.10;;
10353;SDS011;5223;50.924;13.338;2022-11-06T10:38:55;1.40;;;1.40;;
10353;SDS011;5223;50.924;13.338;2022-11-06T10:41:37;1.08;;;1.08;;
10353;SDS011;5223;50.924;13.338;2022-11-06T10:59:12;3.42;;;1.90;;
10353;SDS011;5223;50.924;13.338;2022-11-06T11:02:02;1.25;;;1.25;;
10353;SDS011;5223;50.924;13.338;2022-11-06T11:04:47;2.35;;;2.15;;
10353;SDS011;5223;50.924;13.338;2022-11-06T11:07:40;2.20;;;2.08;;
10353;SDS011;5223;50.924;13.338;2022-11-06T11:10:29;1.17;;;1.17;;
10353;SDS011;5223;50.924;13.338;2022-11-06T11:13:18;1.10;;;1.10;;
10353;SDS011;5223;50.924;13.338;2022-11-06T11:16:15;1.00;;;1.00;;
10353;SDS011;5223;50.924;13.338;2022-11-06T11:19:00;1.15;;;1.15;;
10353;SDS011;5223;50.924;13.338;2022-11-06T11:21:51;1.25;;;1.25;;
10353;SDS011;5223;50.924;13.338;2022-11-06T11:24:41;1.23;;;1.23;;
10353;SDS011;5223;50.924;13.338;2022-11-06T11:27:41;1.00;;;1.00;;
10353;SDS011;5223;50.924;13.338;2022-11-06T11:30:28;1.10;;;1.10;;
10353;SDS011;5223;50.924;13.338;2022-11-06T11:36:14;1.00;;;1.00;;
10353;SDS011;5223;50.924;13.338;2022-11-06T11:38:49;1.00;;;1.00;;
10353;SDS011;5223;50.924;13.338;2022-11-06T11:41:44;1.33;;;1.33;;
10353;SDS011;5223;50.924;13.338;2022-11-06T11:44:20;1.35;;;1.23;;
10353;SDS011;5223;50.924;13.338;2022-11-06T11:46:52;1.00;;;1.00;;
10353;SDS011;5223;50.924;13.338;2022-11-06T11:49:39;1.17;;;1.17;;
10353;SDS011;5223;50.924;13.338;2022-11-06T11:55:28;1.17;;;1.10;;
10353;SDS011;5223;50.924;13.338;2022-11-06T11:58:18;2.00;;;1.80;;
10353;SDS011;5223;50.924;13.338;2022-11-06T12:01:03;1.00;;;1.00;;
10353;SDS011;5223;50.924;13.338;2022-11-06T12:03:48;1.00;;;1.00;;
10353;SDS011;5223;50.924;13.338;2022-11-06T12:06:23;1.00;;;1.00;;
10353;SDS011;5223;50.924;13.338;2022-11-06T12:09:09;0.98;;;0.98;;
10353;SDS011;5223;50.924;13.338;2022-11-06T12:12:17;1.10;;;1.10;;
10353;SDS011;5223;50.924;13.338;2022-11-06T12:15:17;0.88;;;0.88;;
10353;SDS011;5223;50.924;13.338;2022-11-06T12:18:02;1.05;;;1.05;;
10353;SDS011;5223;50.924;13.338;2022-11-06T12:20:55;2.05;;;1.95;;
10353;SDS011;5223;50.924;13.338;2022-11-06T12:23:39;1.02;;;1.02;;
10353;SDS011;5223;50.924;13.338;2022-11-06T12:26:37;1.63;;;1.52;;
10353;SDS011;5223;50.924;13.338;2022-11-06T12:29:31;1.98;;;1.13;;
10353;SDS011;5223;50.924;13.338;2022-11-06T12:32:12;1.27;;;1.27;;
10353;SDS011;5223;50.924;13.338;2022-11-06T12:34:57;1.35;;;1.27;;
10353;SDS011;5223;50.924;13.338;2022-11-06T12:37:48;1.60;;;1.50;;
10353;SDS011;5223;50.924;13.338;2022-11-06T12:40:39;1.30;;;1.30;;
10353;SDS011;5223;50.924;13.338;2022-11-06T12:43:27;1.27;;;1.23;;
10353;SDS011;5223;50.924;13.338;2022-11-06T12:49:43;2.75;;;2.55;;
10353;SDS011;5223;50.924;13.338;2022-11-06T12:52:37;1.23;;;1.23;;
10353;SDS011;5223;50.924;13.338;2022-11-06T12:55:30;2.17;;;1.98;;
10353;SDS011;5223;50.924;13.338;2022-11-06T12:58:21;1.20;;;1.20;;
10353;SDS011;5223;50.924;13.338;2022-11-06T13:01:12;1.40;;;1.40;;
10353;SDS011;5223;50.924;13.338;2022-11-06T13:04:00;3.60;;;2.55;;
10353;SDS011;5223;50.924;13.338;2022-11-06T13:09:46;1.95;;;1.65;;
10353;SDS011;5223;50.924;13.338;2022-11-06T13:12:39;0.82;;;0.82;;
10353;SDS011;5223;50.924;13.338;2022-11-06T13:15:29;1.95;;;1.80;;
10353;SDS011;5223;50.924;13.338;2022-11-06T13:18:23;1.10;;;0.95;;
10353;SDS011;5223;50.924;13.338;2022-11-06T13:21:05;1.23;;;1.23;;
10353;SDS011;5223;50.924;13.338;2022-11-06T13:23:43;2.08;;;1.98;;
10353;SDS011;5223;50.924;13.338;2022-11-06T13:32:29;2.28;;;2.05;;
10353;SDS011;5223;50.924;13.338;2022-11-06T13:35:16;1.50;;;1.45;;
10353;SDS011;5223;50.924;13.338;2022-11-06T13:37:59;1.60;;;1.50;;
10353;SDS011;5223;50.924;13.338;2022-11-06T13:40:43;1.50;;;1.45;;
10353;SDS011;5223;50.924;13.338;2022-11-06T13:43:25;1.23;;;1.23;;
10353;SDS011;5223;50.924;13.338;2022-11-06T13:46:07;0.88;;;0.88;;
10353;SDS011;5223;50.924;13.338;2022-11-06T13:49:03;2.90;;;2.25;;
10353;SDS011;5223;50.924;13.338;2022-11-06T13:51:50;1.20;;;1.20;;
10353;SDS011;5223;50.924;13.338;2022-11-06T13:54:26;2.83;;;2.58;;
10353;SDS011;5223;50.924;13.338;2022-11-06T13:57:29;0.70;;;0.70;;
10353;SDS011;5223;50.924;13.338;2022-11-06T14:00:11;1.45;;;1.35;;
10353;SDS011;5223;50.924;13.338;2022-11-06T14:02:58;1.10;;;1.10;;
10353;SDS011;5223;50.924;13.338;2022-11-06T14:05:51;1.25;;;1.25;;
10353;SDS011;5223;50.924;13.338;2022-11-06T14:08:39;1.42;;;1.33;;
10353;SDS011;5223;50.924;13.338;2022-11-06T14:11:24;1.63;;;1.52;;
10353;SDS011;5223;50.924;13.338;2022-11-06T14:14:10;2.25;;;2.00;;
10353;SDS011;5223;50.924;13.338;2022-11-06T14:19:40;2.28;;;2.10;;
10353;SDS011;5223;50.924;13.338;2022-11-06T14:28:36;1.25;;;1.25;;
10353;SDS011;5223;50.924;13.338;2022-11-06T14:31:56;0.90;;;0.90;;
10353;SDS011;5223;50.924;13.338;2022-11-06T14:43:29;2.00;;;1.75;;
10353;SDS011;5223;50.924;13.338;2022-11-06T14:46:16;2.65;;;2.40;;
10353;SDS011;5223;50.924;13.338;2022-11-06T14:48:55;1.42;;;1.40;;
10353;SDS011;5223;50.924;13.338;2022-11-06T14:51:38;3.33;;;2.77;;
10353;SDS011;5223;50.924;13.338;2022-11-06T14:54:17;2.37;;;2.17;;
10353;SDS011;5223;50.924;13.338;2022-11-06T14:57:00;0.80;;;0.80;;
10353;SDS011;5223;50.924;13.338;2022-11-06T14:59:48;2.20;;;1.70;;
10353;SDS011;5223;50.924;13.338;2022-11-06T15:02:29;3.77;;;2.67;;
10353;SDS011;5223;50.924;13.338;2022-11-06T15:05:17;1.53;;;1.43;;
10353;SDS011;5223;50.924;13.338;2022-11-06T15:08:01;2.20;;;1.67;;
10353;SDS011;5223;50.924;13.338;2022-11-06T15:10:52;1.87;;;1.77;;
10353;SDS011;5223;50.924;13.338;2022-11-06T15:13:33;2.13;;;1.97;;
10353;SDS011;5223;50.924;13.338;2022-11-06T15:16:23;3.20;;;1.90;;
10353;SDS011;5223;50.924;13.338;2022-11-06T15:19:01;3.27;;;2.97;;
10353;SDS011;5223;50.924;13.338;2022-11-06T15:21:36;3.30;;;2.43;;
10353;SDS011;5223;50.924;13.338;2022-11-06T15:24:14;1.30;;;1.23;;
10353;SDS011;5223;50.924;13.338;2022-11-06T15:26:49;4.17;;;2.83;;
10353;SDS011;5223;50.924;13.338;2022-11-06T15:29:35;1.80;;;1.23;;
10353;SDS011;5223;50.924;13.338;2022-11-06T15:35:32;0.90;;;0.90;;
10353;SDS011;5223;50.924;13.338;2022-11-06T15:38:19;3.53;;;2.13;;
10353;SDS011;5223;50.924;13.338;2022-11-06T15:40:52;3.57;;;2.90;;
10353;SDS011;5223;50.924;13.338;2022-11-06T15:43:29;2.67;;;1.83;;
10353;SDS011;5223;50.924;13.338;2022-11-06T15:46:04;1.27;;;1.20;;
10353;SDS011;5223;50.924;13.338;2022-11-06T15:48:46;2.10;;;1.73;;
10353;SDS011;5223;50.924;13.338;2022-11-06T15:51:48;0.30;;;0.30;;
10353;SDS011;5223;50.924;13.338;2022-11-06T15:54:35;0.60;;;0.60;;
10353;SDS011;5223;50.924;13.338;2022-11-06T15:57:22;0.93;;;0.93;;
10353;SDS011;5223;50.924;13.338;2022-11-06T16:00:06;1.50;;;1.40;;
10353;SDS011;5223;50.924;13.338;2022-11-06T16:02:51;0.87;;;0.87;;
10353;SDS011;5223;50.924;13.338;2022-11-06T16:05:29;1.17;;;1.17;;
10353;SDS011;5223;50.924;13.338;2022-11-06T16:11:12;0.60;;;0.60;;
10353;SDS011;5223;50.924;13.338;2022-11-06T16:14:27;4.17;;;2.37;;
10353;SDS011;5223;50.924;13.338;2022-11-06T16:17:07;0.30;;;0.30;;
10353;SDS011;5223;50.924;13.338;2022-11-06T16:20:32;2.27;;;2.07;;
10353;SDS011;5223;50.924;13.338;2022-11-06T16:23:08;1.60;;;1.40;;
10353;SDS011;5223;50.924;13.338;2022-11-06T16:25:55;2.20;;;1.87;;
10353;SDS011;5223;50.924;13.338;2022-11-06T16:28:33;0.80;;;0.80;;
10353;SDS011;5223;50.924;13.338;2022-11-06T16:31:16;0.63;;;0.63;;
10353;SDS011;5223;50.924;13.338;2022-11-06T16:33:55;2.47;;;2.27;;
10353;SDS011;5223;50.924;13.338;2022-11-06T16:39:44;0.80;;;0.80;;
10353;SDS011;5223;50.924;13.338;2022-11-06T16:42:28;2.00;;;1.90;;
10353;SDS011;5223;50.924;13.338;2022-11-06T16:45:14;2.37;;;2.17;;
10353;SDS011;5223;50.924;13.338;2022-11-06T16:50:58;4.30;;;3.13;;
10353;SDS011;5223;50.924;13.338;2022-11-06T16:53:53;4.17;;;2.57;;
10353;SDS011;5223;50.924;13.338;2022-11-06T16:57:01;4.50;;;3.57;;
10353;SDS011;5223;50.924;13.338;2022-11-06T16:59:53;3.10;;;2.70;;
10353;SDS011;5223;50.924;13.338;2022-11-06T17:02:33;0.30;;;0.30;;
10353;SDS011;5223;50.924;13.338;2022-11-06T17:05:13;7.10;;;4.77;;
10353;SDS011;5223;50.924;13.338;2022-11-06T17:08:03;11.67;;;8.20;;
10353;SDS011;5223;50.924;13.338;2022-11-06T17:10:44;5.37;;;4.30;;
10353;SDS011;5223;50.924;13.338;2022-11-06T17:13:36;11.27;;;6.03;;
10353;SDS011;5223;50.924;13.338;2022-11-06T17:16:17;6.27;;;3.20;;
10353;SDS011;5223;50.924;13.338;2022-11-06T17:18:49;10.70;;;4.03;;
10353;SDS011;5223;50.924;13.338;2022-11-06T17:21:30;0.30;;;0.30;;
10353;SDS011;5223;50.924;13.338;2022-11-06T17:24:07;3.40;;;1.73;;
10353;SDS011;5223;50.924;13.338;2022-11-06T17:26:40;1.70;;;1.63;;
10353;SDS011;5223;50.924;13.338;2022-11-06T17:29:38;4.27;;;3.93;;
10353;SDS011;5223;50.924;13.338;2022-11-06T17:32:11;7.13;;;4.57;;
10353;SDS011;5223;50.924;13.338;2022-11-06T17:34:42;3.47;;;2.93;;
10353;SDS011;5223;50.924;13.338;2022-11-06T17:37:24;10.07;;;6.00;;
10353;SDS011;5223;50.924;13.338;2022-11-06T17:39:56;10.47;;;4.63;;
10353;SDS011;5223;50.924;13.338;2022-11-06T17:42:28;7.17;;;4.33;;
10353;SDS011;5223;50.924;13.338;2022-11-06T17:48:05;8.63;;;5.57;;
10353;SDS011;5223;50.924;13.338;2022-11-06T17:50:39;5.90;;;4.07;;
10353;SDS011;5223;50.924;13.338;2022-11-06T17:53:26;6.87;;;3.57;;
10353;SDS011;5223;50.924;13.338;2022-11-06T17:56:08;7.30;;;5.03;;
10353;SDS011;5223;50.924;13.338;2022-11-06T17:58:43;6.70;;;4.87;;
10353;SDS011;5223;50.924;13.338;2022-11-06T18:01:13;7.10;;;4.67;;
10353;SDS011;5223;50.924;13.338;2022-11-06T18:03:51;10.83;;;7.63;;
10353;SDS011;5223;50.924;13.338;2022-11-06T18:06:23;9.77;;;5.53;;
10353;SDS011;5223;50.924;13.338;2022-11-06T18:08:54;6.63;;;4.93;;
10353;SDS011;5223;50.924;13.338;2022-11-06T18:11:35;7.43;;;4.90;;
10353;SDS011;5223;50.924;13.338;2022-11-06T18:14:14;7.63;;;4.40;;
10353;SDS011;5223;50.924;13.338;2022-11-06T18:17:27;15.40;;;5.70;;
10353;SDS011;5223;50.924;13.338;2022-11-06T18:20:00;6.73;;;3.60;;
10353;SDS011;5223;50.924;13.338;2022-11-06T18:22:35;2.43;;;1.93;;
10353;SDS011;5223;50.924;13.338;2022-11-06T18:25:17;2.43;;;2.03;;
10353;SDS011;5223;50.924;13.338;2022-11-06T18:28:00;9.83;;;4.40;;
10353;SDS011;5223;50.924;13.338;2022-11-06T18:30:38;2.37;;;1.97;;